sensor_id;sensor_type;location;lat;lon;timestamp;temperature;humidity
8008;DHT22;4049;49.468;11.200;2022-09-01T00:01:11;16.90;99.90
8008;DHT22;4049;49.468;11.200;2022-09-01T00:03:40;16.90;99.90
8008;DHT22;4049;49.468;11.200;2022-09-01T00:06:07;16.90;99.90
8008;DHT22;4049;49.468;11.200;2022-09-01T00:08:36;16.90;99.90
8008;DHT22;4049;49.468;11.200;2022-09-01T00:11:03;16.90;99.90
8008;DHT22;4049;49.468;11.200;2022-09-01T00:13:30;16.90;99.90
8008;DHT22;4049;49.468;11.200;2022-09-01T00:15:59;16.80;99.90
8008;DHT22;4049;49.468;11.200;2022-09-01T00:18:30;16.80;99.90
8008;DHT22;4049;49.468;11.200;2022-09-01T00:20:59;16.80;99.90
8008;DHT22;4049;49.468;11.200;2022-09-01T00:23:26;16.70;99.90
8008;DHT22;4049;49.468;11.200;2022-09-01T00:25:54;16.70;99.90
8008;DHT22;4049;49.468;11.200;2022-09-01T00:28:21;16.70;99.90
8008;DHT22;4049;49.468;11.200;2022-09-01T00:30:48;16.60;99.90
8008;DHT22;4049;49.468;11.200;2022-09-01T00:33:15;16.60;99.90
8008;DHT22;4049;49.468;11.200;2022-09-01T00:35:43;16.60;99.90
8008;DHT22;4049;49.468;11.200;2022-09-01T00:38:10;16.60;99.90
8008;DHT22;4049;49.468;11.200;2022-09-01T00:40:38;16.60;99.90
8008;DHT22;4049;49.468;11.200;2022-09-01T00:43:12;16.50;99.90
8008;DHT22;4049;49.468;11.200;2022-09-01T00:45:39;16.50;99.90
8008;DHT22;4049;49.468;11.200;2022-09-01T00:48:07;16.50;99.90
8008;DHT22;4049;49.468;11.200;2022-09-01T00:50:35;16.50;99.90
8008;DHT22;4049;49.468;11.200;2022-09-01T00:53:05;16.50;99.90
8008;DHT22;4049;49.468;11.200;2022-09-01T00:55:34;16.50;99.90
8008;DHT22;4049;49.468;11.200;2022-09-01T00:58:04;16.50;99.90
8008;DHT22;4049;49.468;11.200;2022-09-01T01:00:34;16.50;99.90
8008;DHT22;4049;49.468;11.200;2022-09-01T01:03:06;16.50;99.90
8008;DHT22;4049;49.468;11.200;2022-09-01T01:05:36;16.50;99.90
8008;DHT22;4049;49.468;11.200;2022-09-01T01:08:07;16.50;99.90
8008;DHT22;4049;49.468;11.200;2022-09-01T01:10:39;16.50;99.90
8008;DHT22;4049;49.468;11.200;2022-09-01T01:13:09;16.50;99.90
8008;DHT22;4049;49.468;11.200;2022-09-01T01:15:37;16.50;99.90
8008;DHT22;4049;49.468;11.200;2022-09-01T01:18:08;16.60;99.90
8008;DHT22;4049;49.468;11.200;2022-09-01T01:20:35;16.60;99.90
8008;DHT22;4049;49.468;11.200;2022-09-01T01:23:24;16.60;99.90
8008;DHT22;4049;49.468;11.200;2022-09-01T01:25:57;16.60;99.90
8008;DHT22;4049;49.468;11.200;2022-09-01T01:28:27;16.50;99.90
8008;DHT22;4049;49.468;11.200;2022-09-01T01:30:58;16.50;99.90
8008;DHT22;4049;49.468;11.200;2022-09-01T01:33:29;16.50;99.90
8008;DHT22;4049;49.468;11.200;2022-09-01T01:35:56;16.50;99.90
8008;DHT22;4049;49.468;11.200;2022-09-01T01:38:25;16.50;99.90
8008;DHT22;4049;49.468;11.200;2022-09-01T01:40:53;16.40;99.90
8008;DHT22;4049;49.468;11.200;2022-09-01T01:43:22;16.40;99.90
8008;DHT22;4049;49.468;11.200;2022-09-01T01:45:52;16.40;99.90
8008;DHT22;4049;49.468;11.200;2022-09-01T01:48:22;16.40;99.90
8008;DHT22;4049;49.468;11.200;2022-09-01T01:50:50;16.40;99.90
8008;DHT22;4049;49.468;11.200;2022-09-01T01:53:18;16.40;99.90
8008;DHT22;4049;49.468;11.200;2022-09-01T01:55:46;16.40;99.90
8008;DHT22;4049;49.468;11.200;2022-09-01T01:58:14;16.40;99.90
8008;DHT22;4049;49.468;11.200;2022-09-01T02:00:43;16.30;99.90
8008;DHT22;4049;49.468;11.200;2022-09-01T02:03:12;16.30;99.90
8008;DHT22;4049;49.468;11.200;2022-09-01T02:05:42;16.30;99.90
8008;DHT22;4049;49.468;11.200;2022-09-01T02:08:10;16.30;99.90
8008;DHT22;4049;49.468;11.200;2022-09-01T02:10:40;16.30;99.90
8008;DHT22;4049;49.468;11.200;2022-09-01T02:13:08;16.30;99.90
8008;DHT22;4049;49.468;11.200;2022-09-01T02:15:44;16.30;99.90
8008;DHT22;4049;49.468;11.200;2022-09-01T02:18:14;16.20;99.90
8008;DHT22;4049;49.468;11.200;2022-09-01T02:20:42;16.20;99.90
8008;DHT22;4049;49.468;11.200;2022-09-01T02:23:10;16.20;99.90
8008;DHT22;4049;49.468;11.200;2022-09-01T02:25:41;16.20;99.90
8008;DHT22;4049;49.468;11.200;2022-09-01T02:28:10;16.10;99.90
8008;DHT22;4049;49.468;11.200;2022-09-01T02:30:43;16.10;99.90
8008;DHT22;4049;49.468;11.200;2022-09-01T02:33:10;16.10;99.90
8008;DHT22;4049;49.468;11.200;2022-09-01T02:35:43;16.10;99.90
8008;DHT22;4049;49.468;11.200;2022-09-01T02:38:10;16.00;99.90
8008;DHT22;4049;49.468;11.200;2022-09-01T02:40:39;16.10;99.90
8008;DHT22;4049;49.468;11.200;2022-09-01T02:43:09;16.10;99.90
8008;DHT22;4049;49.468;11.200;2022-09-01T02:45:38;16.10;99.90
8008;DHT22;4049;49.468;11.200;2022-09-01T02:48:10;16.00;99.90
8008;DHT22;4049;49.468;11.200;2022-09-01T02:50:40;15.90;99.90
8008;DHT22;4049;49.468;11.200;2022-09-01T02:53:08;15.90;99.90
8008;DHT22;4049;49.468;11.200;2022-09-01T02:55:36;15.80;99.90
8008;DHT22;4049;49.468;11.200;2022-09-01T02:58:04;15.80;99.90
8008;DHT22;4049;49.468;11.200;2022-09-01T03:00:35;15.80;99.90
8008;DHT22;4049;49.468;11.200;2022-09-01T03:03:05;15.80;99.90
8008;DHT22;4049;49.468;11.200;2022-09-01T03:05:33;15.80;99.90
8008;DHT22;4049;49.468;11.200;2022-09-01T03:08:05;15.90;99.90
8008;DHT22;4049;49.468;11.200;2022-09-01T03:10:39;15.80;99.90
8008;DHT22;4049;49.468;11.200;2022-09-01T03:13:08;15.80;99.90
8008;DHT22;4049;49.468;11.200;2022-09-01T03:15:36;15.80;99.90
8008;DHT22;4049;49.468;11.200;2022-09-01T03:18:05;15.80;99.90
8008;DHT22;4049;49.468;11.200;2022-09-01T03:20:35;15.80;99.90
8008;DHT22;4049;49.468;11.200;2022-09-01T03:23:04;15.60;99.90
8008;DHT22;4049;49.468;11.200;2022-09-01T03:25:33;15.50;99.90
8008;DHT22;4049;49.468;11.200;2022-09-01T03:28:00;15.40;99.90
8008;DHT22;4049;49.468;11.200;2022-09-01T03:30:28;15.40;99.90
8008;DHT22;4049;49.468;11.200;2022-09-01T03:32:55;15.30;99.90
8008;DHT22;4049;49.468;11.200;2022-09-01T03:35:23;15.20;99.90
8008;DHT22;4049;49.468;11.200;2022-09-01T03:37:51;15.20;99.90
8008;DHT22;4049;49.468;11.200;2022-09-01T03:40:19;15.10;99.90
8008;DHT22;4049;49.468;11.200;2022-09-01T03:42:46;15.10;99.90
8008;DHT22;4049;49.468;11.200;2022-09-01T03:45:14;15.00;99.90
8008;DHT22;4049;49.468;11.200;2022-09-01T03:47:45;15.00;99.90
8008;DHT22;4049;49.468;11.200;2022-09-01T03:50:14;15.00;99.90
8008;DHT22;4049;49.468;11.200;2022-09-01T03:52:45;15.10;99.90
8008;DHT22;4049;49.468;11.200;2022-09-01T03:55:15;15.00;99.90
8008;DHT22;4049;49.468;11.200;2022-09-01T03:57:47;15.00;99.90
8008;DHT22;4049;49.468;11.200;2022-09-01T04:00:15;14.90;99.90
8008;DHT22;4049;49.468;11.200;2022-09-01T04:02:46;15.00;99.90
8008;DHT22;4049;49.468;11.200;2022-09-01T04:05:16;15.00;99.90
8008;DHT22;4049;49.468;11.200;2022-09-01T04:07:43;14.90;99.90
8008;DHT22;4049;49.468;11.200;2022-09-01T04:10:11;14.80;99.90
8008;DHT22;4049;49.468;11.200;2022-09-01T04:12:40;14.80;99.90
8008;DHT22;4049;49.468;11.200;2022-09-01T04:15:08;14.70;99.90
8008;DHT22;4049;49.468;11.200;2022-09-01T04:17:35;14.70;99.90
8008;DHT22;4049;49.468;11.200;2022-09-01T04:20:20;14.60;99.90
8008;DHT22;4049;49.468;11.200;2022-09-01T04:22:48;14.50;99.90
8008;DHT22;4049;49.468;11.200;2022-09-01T04:25:18;14.50;99.90
8008;DHT22;4049;49.468;11.200;2022-09-01T04:27:52;14.40;99.90
8008;DHT22;4049;49.468;11.200;2022-09-01T04:30:20;14.40;99.90
8008;DHT22;4049;49.468;11.200;2022-09-01T04:32:58;14.40;99.90
8008;DHT22;4049;49.468;11.200;2022-09-01T04:35:24;14.30;99.90
8008;DHT22;4049;49.468;11.200;2022-09-01T04:37:57;14.30;99.90
8008;DHT22;4049;49.468;11.200;2022-09-01T04:40:26;14.30;99.90
8008;DHT22;4049;49.468;11.200;2022-09-01T04:42:54;14.30;99.90
8008;DHT22;4049;49.468;11.200;2022-09-01T04:45:21;14.30;99.90
8008;DHT22;4049;49.468;11.200;2022-09-01T04:47:52;14.20;99.90
8008;DHT22;4049;49.468;11.200;2022-09-01T04:50:20;14.20;99.90
8008;DHT22;4049;49.468;11.200;2022-09-01T04:52:47;14.20;99.90
8008;DHT22;4049;49.468;11.200;2022-09-01T04:55:15;14.20;99.90
8008;DHT22;4049;49.468;11.200;2022-09-01T04:57:44;14.20;99.90
8008;DHT22;4049;49.468;11.200;2022-09-01T05:00:17;14.10;99.90
8008;DHT22;4049;49.468;11.200;2022-09-01T05:02:49;14.20;99.90
8008;DHT22;4049;49.468;11.200;2022-09-01T05:05:18;14.20;99.90
8008;DHT22;4049;49.468;11.200;2022-09-01T05:07:46;14.10;99.90
8008;DHT22;4049;49.468;11.200;2022-09-01T05:10:17;14.10;99.90
8008;DHT22;4049;49.468;11.200;2022-09-01T05:12:44;14.20;99.90
8008;DHT22;4049;49.468;11.200;2022-09-01T05:15:11;14.20;99.90
8008;DHT22;4049;49.468;11.200;2022-09-01T05:17:40;14.20;99.90
8008;DHT22;4049;49.468;11.200;2022-09-01T05:20:10;14.20;99.90
8008;DHT22;4049;49.468;11.200;2022-09-01T05:22:38;14.20;99.90
8008;DHT22;4049;49.468;11.200;2022-09-01T05:25:06;14.20;99.90
8008;DHT22;4049;49.468;11.200;2022-09-01T05:27:39;14.20;99.90
8008;DHT22;4049;49.468;11.200;2022-09-01T05:30:07;14.30;99.90
8008;DHT22;4049;49.468;11.200;2022-09-01T05:32:35;14.30;99.90
8008;DHT22;4049;49.468;11.200;2022-09-01T05:35:06;14.30;99.90
8008;DHT22;4049;49.468;11.200;2022-09-01T05:37:34;14.30;99.90
8008;DHT22;4049;49.468;11.200;2022-09-01T05:40:05;14.30;99.90
8008;DHT22;4049;49.468;11.200;2022-09-01T05:42:34;14.40;99.90
8008;DHT22;4049;49.468;11.200;2022-09-01T05:45:04;14.50;99.90
8008;DHT22;4049;49.468;11.200;2022-09-01T05:47:31;14.50;99.90
8008;DHT22;4049;49.468;11.200;2022-09-01T05:50:02;14.60;99.90
8008;DHT22;4049;49.468;11.200;2022-09-01T05:52:33;14.60;99.90
8008;DHT22;4049;49.468;11.200;2022-09-01T05:55:02;14.60;99.90
8008;DHT22;4049;49.468;11.200;2022-09-01T05:57:34;14.60;99.90
8008;DHT22;4049;49.468;11.200;2022-09-01T06:00:03;14.70;99.90
8008;DHT22;4049;49.468;11.200;2022-09-01T06:02:35;14.70;99.90
8008;DHT22;4049;49.468;11.200;2022-09-01T06:05:04;14.70;99.90
8008;DHT22;4049;49.468;11.200;2022-09-01T06:07:33;14.80;99.90
8008;DHT22;4049;49.468;11.200;2022-09-01T06:10:01;14.80;99.90
8008;DHT22;4049;49.468;11.200;2022-09-01T06:12:28;14.80;99.90
8008;DHT22;4049;49.468;11.200;2022-09-01T06:14:55;14.80;99.90
8008;DHT22;4049;49.468;11.200;2022-09-01T06:17:24;14.90;99.90
8008;DHT22;4049;49.468;11.200;2022-09-01T06:19:53;14.90;99.90
8008;DHT22;4049;49.468;11.200;2022-09-01T06:22:21;15.00;99.90
8008;DHT22;4049;49.468;11.200;2022-09-01T06:24:50;15.00;99.90
8008;DHT22;4049;49.468;11.200;2022-09-01T06:27:21;15.10;99.90
8008;DHT22;4049;49.468;11.200;2022-09-01T06:29:48;15.20;99.90
8008;DHT22;4049;49.468;11.200;2022-09-01T06:32:18;15.30;99.90
8008;DHT22;4049;49.468;11.200;2022-09-01T06:34:45;15.40;99.90
8008;DHT22;4049;49.468;11.200;2022-09-01T06:37:14;15.40;99.90
8008;DHT22;4049;49.468;11.200;2022-09-01T06:39:42;15.60;99.90
8008;DHT22;4049;49.468;11.200;2022-09-01T06:42:11;15.70;99.90
8008;DHT22;4049;49.468;11.200;2022-09-01T06:44:40;15.80;99.90
8008;DHT22;4049;49.468;11.200;2022-09-01T06:47:07;15.90;99.90
8008;DHT22;4049;49.468;11.200;2022-09-01T06:49:34;16.00;99.90
8008;DHT22;4049;49.468;11.200;2022-09-01T06:52:02;16.10;99.90
8008;DHT22;4049;49.468;11.200;2022-09-01T06:54:30;16.20;99.90
8008;DHT22;4049;49.468;11.200;2022-09-01T06:56:58;16.30;99.90
8008;DHT22;4049;49.468;11.200;2022-09-01T06:59:30;16.40;99.90
8008;DHT22;4049;49.468;11.200;2022-09-01T07:01:57;16.40;99.90
8008;DHT22;4049;49.468;11.200;2022-09-01T07:04:26;16.50;99.90
8008;DHT22;4049;49.468;11.200;2022-09-01T07:06:54;16.60;99.90
8008;DHT22;4049;49.468;11.200;2022-09-01T07:09:22;16.80;99.90
8008;DHT22;4049;49.468;11.200;2022-09-01T07:11:49;16.90;99.90
8008;DHT22;4049;49.468;11.200;2022-09-01T07:14:17;16.90;99.90
8008;DHT22;4049;49.468;11.200;2022-09-01T07:16:47;17.00;99.90
8008;DHT22;4049;49.468;11.200;2022-09-01T07:19:15;17.00;99.90
8008;DHT22;4049;49.468;11.200;2022-09-01T07:21:43;17.10;99.90
8008;DHT22;4049;49.468;11.200;2022-09-01T07:24:11;17.20;99.90
8008;DHT22;4049;49.468;11.200;2022-09-01T07:26:40;17.30;99.90
8008;DHT22;4049;49.468;11.200;2022-09-01T07:29:07;17.40;99.90
8008;DHT22;4049;49.468;11.200;2022-09-01T07:31:37;17.50;99.90
8008;DHT22;4049;49.468;11.200;2022-09-01T07:34:09;17.60;99.90
8008;DHT22;4049;49.468;11.200;2022-09-01T07:36:37;17.80;99.90
8008;DHT22;4049;49.468;11.200;2022-09-01T07:39:05;18.00;99.90
8008;DHT22;4049;49.468;11.200;2022-09-01T07:41:32;18.20;99.90
8008;DHT22;4049;49.468;11.200;2022-09-01T07:44:01;18.30;99.90
8008;DHT22;4049;49.468;11.200;2022-09-01T07:46:30;18.40;99.90
8008;DHT22;4049;49.468;11.200;2022-09-01T07:48:59;18.50;99.90
8008;DHT22;4049;49.468;11.200;2022-09-01T07:51:31;18.60;99.90
8008;DHT22;4049;49.468;11.200;2022-09-01T07:54:00;18.60;99.90
8008;DHT22;4049;49.468;11.200;2022-09-01T07:56:28;18.70;99.90
8008;DHT22;4049;49.468;11.200;2022-09-01T07:58:56;18.80;99.90
8008;DHT22;4049;49.468;11.200;2022-09-01T08:01:25;18.90;99.90
8008;DHT22;4049;49.468;11.200;2022-09-01T08:03:54;19.00;99.90
8008;DHT22;4049;49.468;11.200;2022-09-01T08:06:23;19.00;99.90
8008;DHT22;4049;49.468;11.200;2022-09-01T08:08:54;19.10;99.90
8008;DHT22;4049;49.468;11.200;2022-09-01T08:11:23;19.10;99.90
8008;DHT22;4049;49.468;11.200;2022-09-01T08:13:52;19.10;99.90
8008;DHT22;4049;49.468;11.200;2022-09-01T08:16:20;19.20;99.90
8008;DHT22;4049;49.468;11.200;2022-09-01T08:18:47;19.20;99.90
8008;DHT22;4049;49.468;11.200;2022-09-01T08:21:15;19.30;99.90
8008;DHT22;4049;49.468;11.200;2022-09-01T08:23:42;19.30;99.90
8008;DHT22;4049;49.468;11.200;2022-09-01T08:26:13;19.40;99.90
8008;DHT22;4049;49.468;11.200;2022-09-01T08:28:41;19.40;99.90
8008;DHT22;4049;49.468;11.200;2022-09-01T08:31:09;19.40;99.90
8008;DHT22;4049;49.468;11.200;2022-09-01T08:33:36;19.40;99.90
8008;DHT22;4049;49.468;11.200;2022-09-01T08:36:06;19.50;99.90
8008;DHT22;4049;49.468;11.200;2022-09-01T08:38:33;19.60;99.90
8008;DHT22;4049;49.468;11.200;2022-09-01T08:41:01;19.60;99.90
8008;DHT22;4049;49.468;11.200;2022-09-01T08:43:40;19.70;99.90
8008;DHT22;4049;49.468;11.200;2022-09-01T08:46:13;19.70;99.90
8008;DHT22;4049;49.468;11.200;2022-09-01T08:48:46;19.70;99.90
8008;DHT22;4049;49.468;11.200;2022-09-01T08:51:20;19.70;99.90
8008;DHT22;4049;49.468;11.200;2022-09-01T08:53:58;19.80;99.90
8008;DHT22;4049;49.468;11.200;2022-09-01T08:56:27;19.80;99.90
8008;DHT22;4049;49.468;11.200;2022-09-01T08:58:57;19.90;99.90
8008;DHT22;4049;49.468;11.200;2022-09-01T09:01:29;19.90;99.90
8008;DHT22;4049;49.468;11.200;2022-09-01T09:04:07;19.90;99.90
8008;DHT22;4049;49.468;11.200;2022-09-01T09:06:44;20.00;99.90
8008;DHT22;4049;49.468;11.200;2022-09-01T09:09:13;20.10;99.90
8008;DHT22;4049;49.468;11.200;2022-09-01T09:11:50;20.20;99.90
8008;DHT22;4049;49.468;11.200;2022-09-01T09:14:30;20.10;99.90
8008;DHT22;4049;49.468;11.200;2022-09-01T09:16:59;20.20;99.90
8008;DHT22;4049;49.468;11.200;2022-09-01T09:19:30;20.20;99.90
8008;DHT22;4049;49.468;11.200;2022-09-01T09:21:59;20.30;99.90
8008;DHT22;4049;49.468;11.200;2022-09-01T09:24:29;20.30;99.90
8008;DHT22;4049;49.468;11.200;2022-09-01T09:27:16;20.30;99.90
8008;DHT22;4049;49.468;11.200;2022-09-01T09:29:46;20.40;99.90
8008;DHT22;4049;49.468;11.200;2022-09-01T09:32:15;20.50;99.90
8008;DHT22;4049;49.468;11.200;2022-09-01T09:34:42;20.60;99.90
8008;DHT22;4049;49.468;11.200;2022-09-01T09:37:23;20.70;99.90
8008;DHT22;4049;49.468;11.200;2022-09-01T09:40:07;20.80;99.90
8008;DHT22;4049;49.468;11.200;2022-09-01T09:42:35;20.80;99.90
8008;DHT22;4049;49.468;11.200;2022-09-01T09:45:15;20.80;99.90
8008;DHT22;4049;49.468;11.200;2022-09-01T09:47:46;20.90;99.90
8008;DHT22;4049;49.468;11.200;2022-09-01T09:50:20;20.90;99.90
8008;DHT22;4049;49.468;11.200;2022-09-01T09:52:49;20.90;99.90
8008;DHT22;4049;49.468;11.200;2022-09-01T09:55:24;21.00;99.90
8008;DHT22;4049;49.468;11.200;2022-09-01T09:57:55;21.00;99.90
8008;DHT22;4049;49.468;11.200;2022-09-01T10:00:25;21.10;99.90
8008;DHT22;4049;49.468;11.200;2022-09-01T10:02:56;21.20;99.90
8008;DHT22;4049;49.468;11.200;2022-09-01T10:05:36;21.30;99.90
8008;DHT22;4049;49.468;11.200;2022-09-01T10:08:05;21.30;99.90
8008;DHT22;4049;49.468;11.200;2022-09-01T10:10:38;21.30;99.90
8008;DHT22;4049;49.468;11.200;2022-09-01T10:13:09;21.40;99.90
8008;DHT22;4049;49.468;11.200;2022-09-01T10:15:39;21.40;99.90
8008;DHT22;4049;49.468;11.200;2022-09-01T10:18:09;21.50;99.90
8008;DHT22;4049;49.468;11.200;2022-09-01T10:20:42;21.30;99.90
8008;DHT22;4049;49.468;11.200;2022-09-01T10:23:09;21.60;99.90
8008;DHT22;4049;49.468;11.200;2022-09-01T10:25:37;21.70;99.90
8008;DHT22;4049;49.468;11.200;2022-09-01T10:28:09;21.70;99.90
8008;DHT22;4049;49.468;11.200;2022-09-01T10:30:42;21.80;99.90
8008;DHT22;4049;49.468;11.200;2022-09-01T10:33:11;21.80;99.90
8008;DHT22;4049;49.468;11.200;2022-09-01T10:35:41;21.80;99.90
8008;DHT22;4049;49.468;11.200;2022-09-01T10:38:13;21.90;99.90
8008;DHT22;4049;49.468;11.200;2022-09-01T10:40:41;22.00;99.90
8008;DHT22;4049;49.468;11.200;2022-09-01T10:43:32;22.10;99.90
8008;DHT22;4049;49.468;11.200;2022-09-01T10:48:53;22.10;99.60
8008;DHT22;4049;49.468;11.200;2022-09-01T10:51:43;22.10;97.20
8008;DHT22;4049;49.468;11.200;2022-09-01T10:57:18;22.20;99.90
8008;DHT22;4049;49.468;11.200;2022-09-01T10:59:47;22.20;99.90
8008;DHT22;4049;49.468;11.200;2022-09-01T11:02:16;22.20;99.90
8008;DHT22;4049;49.468;11.200;2022-09-01T11:05:10;22.20;99.90
8008;DHT22;4049;49.468;11.200;2022-09-01T11:07:38;22.10;99.90
8008;DHT22;4049;49.468;11.200;2022-09-01T11:10:28;22.10;99.90
8008;DHT22;4049;49.468;11.200;2022-09-01T11:13:11;22.10;99.90
8008;DHT22;4049;49.468;11.200;2022-09-01T11:15:44;22.20;99.90
8008;DHT22;4049;49.468;11.200;2022-09-01T11:18:15;22.10;99.90
8008;DHT22;4049;49.468;11.200;2022-09-01T11:20:44;22.10;99.90
8008;DHT22;4049;49.468;11.200;2022-09-01T11:23:21;22.20;99.90
8008;DHT22;4049;49.468;11.200;2022-09-01T11:25:49;22.20;99.90
8008;DHT22;4049;49.468;11.200;2022-09-01T11:28:35;22.20;99.90
8008;DHT22;4049;49.468;11.200;2022-09-01T11:31:20;22.20;99.90
8008;DHT22;4049;49.468;11.200;2022-09-01T11:33:58;22.20;99.90
8008;DHT22;4049;49.468;11.200;2022-09-01T11:36:30;22.20;99.90
8008;DHT22;4049;49.468;11.200;2022-09-01T11:39:06;22.30;99.90
8008;DHT22;4049;49.468;11.200;2022-09-01T11:41:45;22.30;99.90
8008;DHT22;4049;49.468;11.200;2022-09-01T11:44:19;22.30;99.50
8008;DHT22;4049;49.468;11.200;2022-09-01T11:46:49;22.30;99.90
8008;DHT22;4049;49.468;11.200;2022-09-01T11:49:29;22.30;99.90
8008;DHT22;4049;49.468;11.200;2022-09-01T11:51:58;22.40;99.90
8008;DHT22;4049;49.468;11.200;2022-09-01T11:54:28;22.40;99.90
8008;DHT22;4049;49.468;11.200;2022-09-01T11:56:55;22.40;99.90
8008;DHT22;4049;49.468;11.200;2022-09-01T11:59:32;22.50;99.90
8008;DHT22;4049;49.468;11.200;2022-09-01T12:01:59;22.60;99.80
8008;DHT22;4049;49.468;11.200;2022-09-01T12:04:33;22.70;99.90
8008;DHT22;4049;49.468;11.200;2022-09-01T12:07:05;22.70;99.90
8008;DHT22;4049;49.468;11.200;2022-09-01T12:09:37;22.80;99.90
8008;DHT22;4049;49.468;11.200;2022-09-01T12:12:06;22.90;99.10
8008;DHT22;4049;49.468;11.200;2022-09-01T12:14:33;23.10;99.90
8008;DHT22;4049;49.468;11.200;2022-09-01T12:17:02;23.30;99.10
8008;DHT22;4049;49.468;11.200;2022-09-01T12:19:33;23.40;98.60
8008;DHT22;4049;49.468;11.200;2022-09-01T12:22:06;23.60;99.90
8008;DHT22;4049;49.468;11.200;2022-09-01T12:24:44;23.80;97.20
8008;DHT22;4049;49.468;11.200;2022-09-01T12:27:12;24.00;95.10
8008;DHT22;4049;49.468;11.200;2022-09-01T12:29:40;24.20;90.60
8008;DHT22;4049;49.468;11.200;2022-09-01T12:32:07;24.60;90.50
8008;DHT22;4049;49.468;11.200;2022-09-01T12:34:39;25.10;90.30
8008;DHT22;4049;49.468;11.200;2022-09-01T12:37:09;25.40;83.90
8008;DHT22;4049;49.468;11.200;2022-09-01T12:39:38;25.50;73.30
8008;DHT22;4049;49.468;11.200;2022-09-01T12:42:11;25.30;77.30
8008;DHT22;4049;49.468;11.200;2022-09-01T12:44:45;25.50;71.30
8008;DHT22;4049;49.468;11.200;2022-09-01T12:47:46;25.40;70.60
8008;DHT22;4049;49.468;11.200;2022-09-01T12:50:35;25.30;64.60
8008;DHT22;4049;49.468;11.200;2022-09-01T12:53:03;25.20;60.90
8008;DHT22;4049;49.468;11.200;2022-09-01T12:55:39;24.80;60.80
8008;DHT22;4049;49.468;11.200;2022-09-01T12:58:08;25.00;66.70
8008;DHT22;4049;49.468;11.200;2022-09-01T13:00:53;25.00;62.70
8008;DHT22;4049;49.468;11.200;2022-09-01T13:03:21;25.20;65.60
8008;DHT22;4049;49.468;11.200;2022-09-01T13:05:51;25.20;63.10
8008;DHT22;4049;49.468;11.200;2022-09-01T13:08:20;25.30;63.60
8008;DHT22;4049;49.468;11.200;2022-09-01T13:10:52;25.30;60.70
8008;DHT22;4049;49.468;11.200;2022-09-01T13:13:21;25.40;61.80
8008;DHT22;4049;49.468;11.200;2022-09-01T13:15:51;25.50;56.80
8008;DHT22;4049;49.468;11.200;2022-09-01T13:18:19;25.70;59.00
8008;DHT22;4049;49.468;11.200;2022-09-01T13:20:47;25.90;56.30
8008;DHT22;4049;49.468;11.200;2022-09-01T13:23:16;25.90;56.40
8008;DHT22;4049;49.468;11.200;2022-09-01T13:25:43;25.90;57.50
8008;DHT22;4049;49.468;11.200;2022-09-01T13:28:11;26.10;57.60
8008;DHT22;4049;49.468;11.200;2022-09-01T13:30:38;26.10;56.40
8008;DHT22;4049;49.468;11.200;2022-09-01T13:33:05;26.20;52.20
8008;DHT22;4049;49.468;11.200;2022-09-01T13:35:32;26.20;55.90
8008;DHT22;4049;49.468;11.200;2022-09-01T13:37:59;26.20;55.10
8008;DHT22;4049;49.468;11.200;2022-09-01T13:40:28;26.10;55.90
8008;DHT22;4049;49.468;11.200;2022-09-01T13:42:55;26.20;53.60
8008;DHT22;4049;49.468;11.200;2022-09-01T13:45:23;26.20;56.00
8008;DHT22;4049;49.468;11.200;2022-09-01T13:47:51;26.30;54.90
8008;DHT22;4049;49.468;11.200;2022-09-01T13:50:20;26.40;54.20
8008;DHT22;4049;49.468;11.200;2022-09-01T13:52:51;26.40;53.40
8008;DHT22;4049;49.468;11.200;2022-09-01T13:55:20;26.50;53.00
8008;DHT22;4049;49.468;11.200;2022-09-01T13:57:49;26.70;52.60
8008;DHT22;4049;49.468;11.200;2022-09-01T14:00:18;26.60;50.00
8008;DHT22;4049;49.468;11.200;2022-09-01T14:02:47;26.70;53.00
8008;DHT22;4049;49.468;11.200;2022-09-01T14:05:15;26.50;48.30
8008;DHT22;4049;49.468;11.200;2022-09-01T14:07:42;26.60;50.40
8008;DHT22;4049;49.468;11.200;2022-09-01T14:10:09;26.90;50.80
8008;DHT22;4049;49.468;11.200;2022-09-01T14:12:37;27.00;51.50
8008;DHT22;4049;49.468;11.200;2022-09-01T14:15:08;27.00;49.00
8008;DHT22;4049;49.468;11.200;2022-09-01T14:17:35;27.10;49.90
8008;DHT22;4049;49.468;11.200;2022-09-01T14:20:04;27.00;48.40
8008;DHT22;4049;49.468;11.200;2022-09-01T14:22:32;27.30;48.70
8008;DHT22;4049;49.468;11.200;2022-09-01T14:25:00;27.40;47.90
8008;DHT22;4049;49.468;11.200;2022-09-01T14:27:27;27.60;49.10
8008;DHT22;4049;49.468;11.200;2022-09-01T14:29:54;27.70;48.90
8008;DHT22;4049;49.468;11.200;2022-09-01T14:32:22;27.70;48.10
8008;DHT22;4049;49.468;11.200;2022-09-01T14:34:51;27.70;47.60
8008;DHT22;4049;49.468;11.200;2022-09-01T14:37:18;27.90;49.40
8008;DHT22;4049;49.468;11.200;2022-09-01T14:39:48;28.10;48.80
8008;DHT22;4049;49.468;11.200;2022-09-01T14:42:16;28.10;47.60
8008;DHT22;4049;49.468;11.200;2022-09-01T14:44:43;28.10;48.80
8008;DHT22;4049;49.468;11.200;2022-09-01T14:47:10;27.80;48.20
8008;DHT22;4049;49.468;11.200;2022-09-01T14:49:39;27.30;47.90
8008;DHT22;4049;49.468;11.200;2022-09-01T14:52:07;26.60;49.10
8008;DHT22;4049;49.468;11.200;2022-09-01T14:54:35;26.20;50.00
8008;DHT22;4049;49.468;11.200;2022-09-01T14:57:02;25.80;50.60
8008;DHT22;4049;49.468;11.200;2022-09-01T14:59:30;25.50;51.90
8008;DHT22;4049;49.468;11.200;2022-09-01T15:01:57;25.30;53.10
8008;DHT22;4049;49.468;11.200;2022-09-01T15:04:24;25.10;53.80
8008;DHT22;4049;49.468;11.200;2022-09-01T15:06:53;24.80;54.00
8008;DHT22;4049;49.468;11.200;2022-09-01T15:09:21;24.70;54.30
8008;DHT22;4049;49.468;11.200;2022-09-01T15:11:48;24.50;54.90
8008;DHT22;4049;49.468;11.200;2022-09-01T15:14:15;24.40;54.80
8008;DHT22;4049;49.468;11.200;2022-09-01T15:16:42;24.30;55.00
8008;DHT22;4049;49.468;11.200;2022-09-01T15:19:12;24.10;56.30
8008;DHT22;4049;49.468;11.200;2022-09-01T15:21:41;24.00;57.40
8008;DHT22;4049;49.468;11.200;2022-09-01T15:24:10;23.90;57.50
8008;DHT22;4049;49.468;11.200;2022-09-01T15:26:38;23.90;59.10
8008;DHT22;4049;49.468;11.200;2022-09-01T15:29:06;23.80;57.20
8008;DHT22;4049;49.468;11.200;2022-09-01T15:31:34;23.60;58.00
8008;DHT22;4049;49.468;11.200;2022-09-01T15:34:02;23.60;59.30
8008;DHT22;4049;49.468;11.200;2022-09-01T15:36:32;23.50;59.00
8008;DHT22;4049;49.468;11.200;2022-09-01T15:39:00;23.40;59.00
8008;DHT22;4049;49.468;11.200;2022-09-01T15:41:29;23.30;59.40
8008;DHT22;4049;49.468;11.200;2022-09-01T15:43:57;23.30;60.20
8008;DHT22;4049;49.468;11.200;2022-09-01T15:46:24;23.10;59.50
8008;DHT22;4049;49.468;11.200;2022-09-01T15:48:57;23.00;59.20
8008;DHT22;4049;49.468;11.200;2022-09-01T15:51:30;23.00;58.20
8008;DHT22;4049;49.468;11.200;2022-09-01T15:54:00;22.90;59.10
8008;DHT22;4049;49.468;11.200;2022-09-01T15:56:29;22.90;58.10
8008;DHT22;4049;49.468;11.200;2022-09-01T15:58:57;22.80;58.30
8008;DHT22;4049;49.468;11.200;2022-09-01T16:01:26;22.70;58.60
8008;DHT22;4049;49.468;11.200;2022-09-01T16:03:53;22.60;57.90
8008;DHT22;4049;49.468;11.200;2022-09-01T16:06:20;22.60;58.80
8008;DHT22;4049;49.468;11.200;2022-09-01T16:08:48;22.50;57.60